createdAt,value
2022-11-05T06:32:34.295Z,6.72
2022-11-05T06:35:00.805Z,6.75
2022-11-05T06:37:27.862Z,6.75
2022-11-05T06:39:54.532Z,6.71
2022-11-05T06:42:21.089Z,6.68
2022-11-05T06:44:47.671Z,6.68
2022-11-05T06:47:14.259Z,6.64
2022-11-05T06:49:40.752Z,6.77
2022-11-05T06:52:07.241Z,6.72
2022-11-05T06:54:33.999Z,6.58
2022-11-05T06:57:00.511Z,6.64
2022-11-05T06:59:26.999Z,6.59
2022-11-05T07:01:53.550Z,6.58
2022-11-05T07:04:20.384Z,6.50
2022-11-05T07:06:46.912Z,6.46
2022-11-05T07:09:13.454Z,6.49
2022-11-05T07:11:40.243Z,6.56
2022-11-05T07:14:07.527Z,6.52
2022-11-05T07:16:34.011Z,6.65
2022-11-05T07:19:00.504Z,6.59
2022-11-05T07:21:27.956Z,6.65
2022-11-05T07:23:54.470Z,6.69
2022-11-05T07:26:20.989Z,6.72
2022-11-05T07:28:47.485Z,6.65
2022-11-05T07:31:13.992Z,6.68
2022-11-05T07:33:40.984Z,6.82
2022-11-05T07:36:07.906Z,6.77
2022-11-05T07:38:34.426Z,6.76
2022-11-05T07:41:01.258Z,6.96
2022-11-05T07:43:27.767Z,7.69
2022-11-05T07:45:54.812Z,7.92
2022-11-05T07:48:21.314Z,8.31
2022-11-05T07:50:51.815Z,8.58
2022-11-05T07:53:18.591Z,8.31
2022-11-05T07:55:46.025Z,8.27
2022-11-05T07:58:12.659Z,8.22
2022-11-05T08:00:39.662Z,8.40
2022-11-05T08:03:09.145Z,8.57
2022-11-05T08:05:38.536Z,9.08
2022-11-05T08:08:06.733Z,9.87
2022-11-05T08:10:34.223Z,10.28
2022-11-05T08:13:00.984Z,10.98
2022-11-05T08:15:28.076Z,11.40
2022-11-05T08:18:01.599Z,12.14
2022-11-05T08:20:28.180Z,12.88
2022-11-05T08:22:55.128Z,13.04
2022-11-05T08:25:21.667Z,13.55
2022-11-05T08:27:48.497Z,13.92
2022-11-05T08:30:15.056Z,14.47
2022-11-05T08:32:41.920Z,14.71
2022-11-05T08:35:08.759Z,15.02
2022-11-05T08:37:35.256Z,14.82
2022-11-05T08:40:01.808Z,15.38
2022-11-05T08:42:28.569Z,15.25
2022-11-05T08:44:55.054Z,15.56
2022-11-05T08:47:21.753Z,15.81
2022-11-05T08:49:48.269Z,16.04
2022-11-05T08:52:14.898Z,16.32
2022-11-05T08:54:43.101Z,16.41
2022-11-05T08:57:09.766Z,15.74
2022-11-05T08:59:36.284Z,15.70
2022-11-05T09:02:02.901Z,15.96
2022-11-05T09:04:29.683Z,16.38
2022-11-05T09:06:56.163Z,16.75
2022-11-05T09:09:22.731Z,14.98
2022-11-05T09:12:10.998Z,14.68
2022-11-05T09:14:35.821Z,14.56
2022-11-05T09:17:02.457Z,15.35
2022-11-05T09:19:28.952Z,16.25
2022-11-05T09:21:55.731Z,17.27
2022-11-05T09:24:23.357Z,17.78
2022-11-05T09:26:49.871Z,17.64
2022-11-05T09:29:16.388Z,17.28
2022-11-05T09:31:43.057Z,17.06
2022-11-05T09:34:09.584Z,16.02
2022-11-05T09:36:36.099Z,16.25
2022-11-05T09:39:02.713Z,15.97
2022-11-05T09:41:31.938Z,14.75
2022-11-05T09:44:04.562Z,14.37
2022-11-05T09:46:42.859Z,13.85
2022-11-05T09:49:22.230Z,13.57
2022-11-05T09:51:48.813Z,13.27
2022-11-05T09:54:15.644Z,13.31
2022-11-05T09:56:42.255Z,12.83
2022-11-05T09:59:22.639Z,12.78
2022-11-05T10:01:52.426Z,12.86
2022-11-05T10:04:22.567Z,12.88
2022-11-05T10:06:55.326Z,12.75
2022-11-05T10:09:28.998Z,12.75
2022-11-05T10:12:11.735Z,12.53
2022-11-05T10:14:44.061Z,12.34
2022-11-05T10:17:17.845Z,12.34
2022-11-05T10:20:16.817Z,12.34
2022-11-05T10:22:49.183Z,12.45
2022-11-05T10:25:18.984Z,12.46
2022-11-05T10:27:57.201Z,12.37
2022-11-05T10:30:23.739Z,12.38
2022-11-05T10:32:55.336Z,12.46
2022-11-05T10:35:24.524Z,12.46
2022-11-05T10:37:53.416Z,12.65
2022-11-05T10:40:30.337Z,12.59
2022-11-05T10:43:04.514Z,12.63
2022-11-05T10:45:34.200Z,12.76
2022-11-05T10:48:23.941Z,12.86
2022-11-05T10:50:50.491Z,12.80
2022-11-05T10:53:22.398Z,12.90
2022-11-05T10:55:51.170Z,12.88
2022-11-05T10:58:17.616Z,12.59
2022-11-05T11:01:05.533Z,12.89
2022-11-05T11:03:37.689Z,13.74
2022-11-05T11:06:28.515Z,15.79
2022-11-05T11:09:01.378Z,16.72
2022-11-05T11:11:42.787Z,16.86
2022-11-05T11:14:12.404Z,16.97
2022-11-05T11:16:41.758Z,16.87
2022-11-05T11:19:23.764Z,16.84
2022-11-05T11:22:13.769Z,16.51
2022-11-05T11:24:43.002Z,17.52
2022-11-05T11:27:33.352Z,18.00
2022-11-05T11:30:05.468Z,18.38
2022-11-05T11:32:36.387Z,18.24
2022-11-05T11:35:04.872Z,18.98
2022-11-05T11:37:36.046Z,18.92
2022-11-05T11:40:19.233Z,18.76
2022-11-05T11:42:52.910Z,18.69
2022-11-05T11:45:45.840Z,18.30
2022-11-05T11:48:21.880Z,17.81
2022-11-05T11:50:49.392Z,16.25
2022-11-05T11:53:22.098Z,15.91
2022-11-05T11:56:01.961Z,15.59
2022-11-05T11:58:54.309Z,15.05
2022-11-05T12:02:02.437Z,15.16
2022-11-05T12:04:29.415Z,15.54
2022-11-05T12:07:07.712Z,15.47
2022-11-05T12:09:53.036Z,15.40
2022-11-05T12:12:28.792Z,15.11
2022-11-05T12:15:12.831Z,15.09
2022-11-05T12:18:06.512Z,15.02
2022-11-05T12:20:32.978Z,15.35
2022-11-05T12:23:24.210Z,15.53
2022-11-05T12:26:12.433Z,15.50
2022-11-05T12:29:17.811Z,14.96
2022-11-05T12:31:49.880Z,14.27
2022-11-05T12:34:48.398Z,14.34
2022-11-05T12:37:30.743Z,14.61
2022-11-05T12:40:18.180Z,14.85
2022-11-05T12:43:17.178Z,15.01
2022-11-05T12:46:16.151Z,15.13
2022-11-05T12:49:13.621Z,15.35
2022-11-05T12:51:54.462Z,15.96
2022-11-05T12:54:26.627Z,16.33
2022-11-05T12:56:59.178Z,15.86
2022-11-05T12:59:34.763Z,15.12
2022-11-05T13:02:22.572Z,14.91
2022-11-05T13:05:20.980Z,14.53
2022-11-05T13:08:13.774Z,14.30
2022-11-05T13:10:50.965Z,14.17
2022-11-05T13:13:37.209Z,14.20
2022-11-05T13:16:12.296Z,13.85
2022-11-05T13:19:20.486Z,14.19
2022-11-05T13:22:16.362Z,14.16
2022-11-05T13:24:53.058Z,13.81
2022-11-05T13:27:22.680Z,13.85
2022-11-05T13:29:53.483Z,13.65
2022-11-05T13:32:39.290Z,13.59
2022-11-05T13:35:14.710Z,13.40
2022-11-05T13:38:03.311Z,13.33
2022-11-05T13:40:47.470Z,13.03
2022-11-05T13:43:32.752Z,12.99
2022-11-05T13:46:14.103Z,12.95
2022-11-05T13:48:40.593Z,12.88
2022-11-05T13:51:14.104Z,12.96
2022-11-05T13:54:05.465Z,12.99
2022-11-05T13:56:44.181Z,12.79
2022-11-05T13:59:50.125Z,12.52
2022-11-05T14:02:28.540Z,12.34
2022-11-05T14:05:01.352Z,12.34
2022-11-05T14:07:34.484Z,12.35
2022-11-05T14:10:20.602Z,12.42
2022-11-05T14:12:51.269Z,12.28
2022-11-05T14:15:26.181Z,12.35
2022-11-05T14:18:18.455Z,12.27
2022-11-05T14:20:58.482Z,12.16
2022-11-05T14:23:25.210Z,12.30
2022-11-05T14:25:55.565Z,12.21
2022-11-05T14:28:34.117Z,12.24
2022-11-05T14:31:05.156Z,12.34
2022-11-05T14:34:01.979Z,12.34
2022-11-05T14:36:32.442Z,12.28
2022-11-05T14:39:13.442Z,12.17
2022-11-05T14:42:01.784Z,12.07
2022-11-05T14:44:30.015Z,12.11
2022-11-05T14:47:04.446Z,12.18
2022-11-05T14:49:54.226Z,12.21
2022-11-05T14:52:21.118Z,12.22
2022-11-05T14:54:50.693Z,12.03
2022-11-05T14:57:42.944Z,12.05
2022-11-05T15:00:28.148Z,11.93
2022-11-05T15:03:25.311Z,11.95
2022-11-05T15:05:53.033Z,12.00
2022-11-05T15:08:35.416Z,11.89
2022-11-05T15:11:23.064Z,11.98
2022-11-05T15:14:03.903Z,11.95
2022-11-05T15:16:48.498Z,11.87
2022-11-05T15:19:21.207Z,11.82
2022-11-05T15:21:48.327Z,11.89
2022-11-05T15:24:17.834Z,11.80
2022-11-05T15:26:54.823Z,11.86
2022-11-05T15:29:25.767Z,11.73
2022-11-05T15:31:53.248Z,11.79
2022-11-05T15:34:19.974Z,11.76
2022-11-05T15:36:52.078Z,11.84
2022-11-05T15:39:48.904Z,11.69
2022-11-05T15:42:24.649Z,11.63
2022-11-05T15:44:53.964Z,11.65
2022-11-05T15:47:31.212Z,11.65
2022-11-05T15:50:01.379Z,11.65
2022-11-05T15:52:36.616Z,11.61
2022-11-05T15:55:30.291Z,11.56
2022-11-05T15:58:04.506Z,11.61
2022-11-05T16:00:34.443Z,11.58
2022-11-05T16:03:05.258Z,11.52
2022-11-05T16:05:35.237Z,11.46
2022-11-05T16:08:04.368Z,11.39
2022-11-05T16:10:35.520Z,11.32
2022-11-05T16:13:31.211Z,11.26
2022-11-05T16:16:00.526Z,11.32
2022-11-05T16:18:38.664Z,11.40
2022-11-05T16:21:06.849Z,11.34
2022-11-05T16:23:48.479Z,11.22
2022-11-05T16:29:40.963Z,11.11
2022-11-05T16:32:33.871Z,11.01
2022-11-05T16:35:03.642Z,11.14
2022-11-05T16:37:37.789Z,11.14
2022-11-05T16:40:13.325Z,11.07
2022-11-05T16:42:40.988Z,11.03
2022-11-05T16:45:11.801Z,11.05
2022-11-05T16:47:38.326Z,11.00
2022-11-05T16:50:31.149Z,10.94
2022-11-05T16:52:57.859Z,10.95
2022-11-05T16:55:24.480Z,10.97
2022-11-05T16:57:55.715Z,11.05
2022-11-05T17:00:23.705Z,11.12
2022-11-05T17:02:51.209Z,11.00
2022-11-05T17:05:24.274Z,10.93
2022-11-05T17:07:51.173Z,10.98
2022-11-05T17:10:18.589Z,10.94
2022-11-05T17:12:45.947Z,10.95
2022-11-05T17:15:25.173Z,10.90
2022-11-05T17:17:53.504Z,10.88
2022-11-05T17:20:26.306Z,10.91
2022-11-05T17:22:53.111Z,10.94
2022-11-05T17:25:19.617Z,10.83
2022-11-05T17:27:46.124Z,10.91
2022-11-05T17:30:13.214Z,10.85
2022-11-05T17:32:40.017Z,10.87
2022-11-05T17:35:07.770Z,10.87
2022-11-05T17:37:34.503Z,10.88
2022-11-05T17:40:02.348Z,10.87
2022-11-05T17:42:28.894Z,10.90
2022-11-05T17:44:55.476Z,10.83
2022-11-05T17:47:22.198Z,10.88
2022-11-05T17:49:48.726Z,10.95
2022-11-05T17:52:15.358Z,10.88
2022-11-05T17:54:41.878Z,10.87
2022-11-05T17:57:08.459Z,10.95
2022-11-05T17:59:35.039Z,10.97
2022-11-05T18:02:01.725Z,10.93
2022-11-05T18:04:28.398Z,10.91
2022-11-05T18:06:54.879Z,11.01
2022-11-05T18:09:21.597Z,10.98
2022-11-05T18:11:48.122Z,10.95
2022-11-05T18:14:15.974Z,10.94
2022-11-05T18:16:44.229Z,10.98
2022-11-05T18:19:10.723Z,10.95
2022-11-05T18:21:37.314Z,10.98
2022-11-05T18:24:06.878Z,11.00
2022-11-05T18:26:34.177Z,11.03
2022-11-05T18:29:02.157Z,11.05
2022-11-05T18:31:28.675Z,11.03
2022-11-05T18:33:58.284Z,11.12
2022-11-05T18:36:29.249Z,11.16
2022-11-05T18:38:58.340Z,11.12
2022-11-05T18:41:25.101Z,11.08
2022-11-05T18:43:51.647Z,11.01
2022-11-05T18:46:43.142Z,11.00
2022-11-05T18:49:05.689Z,11.08
2022-11-05T18:51:32.599Z,11.05
2022-11-05T18:54:00.558Z,11.05
2022-11-05T18:56:27.069Z,11.07
2022-11-05T18:59:14.713Z,11.08
2022-11-05T19:01:40.798Z,11.08
2022-11-05T19:04:07.456Z,11.00
2022-11-05T19:06:34.906Z,10.83
2022-11-05T19:09:01.776Z,10.88
2022-11-05T19:11:28.309Z,10.81
2022-11-05T19:13:54.868Z,10.73
2022-11-05T19:16:24.091Z,10.66
2022-11-05T19:18:51.137Z,10.63
2022-11-05T19:21:20.693Z,10.56
2022-11-05T19:23:47.617Z,10.60
2022-11-05T19:26:16.529Z,10.64
2022-11-05T19:28:43.594Z,10.68
2022-11-05T19:31:16.255Z,10.64
2022-11-05T19:33:44.148Z,10.67
2022-11-05T19:36:12.038Z,10.66
2022-11-05T19:38:38.611Z,10.66
2022-11-05T19:41:08.059Z,10.67
2022-11-05T19:43:36.170Z,10.61
2022-11-05T19:46:22.677Z,10.64
2022-11-05T19:48:49.374Z,10.61
2022-11-05T19:51:18.852Z,10.66
2022-11-05T19:53:45.677Z,10.55
2022-11-05T19:56:18.099Z,10.46
2022-11-05T19:58:44.790Z,10.50
2022-11-05T20:01:12.999Z,10.37
2022-11-05T20:03:40.213Z,10.40
2022-11-05T20:06:09.943Z,10.23
2022-11-05T20:08:59.345Z,10.25
2022-11-05T20:11:24.537Z,10.25
2022-11-05T20:13:51.259Z,10.12
2022-11-05T20:16:24.995Z,10.08
2022-11-05T20:18:51.858Z,10.06
2022-11-05T20:21:19.037Z,10.01
2022-11-05T20:23:45.871Z,9.99
2022-11-05T20:26:13.425Z,9.97
2022-11-05T20:28:40.927Z,9.97
2022-11-05T20:31:11.280Z,9.99
2022-11-05T20:33:38.801Z,9.95
2022-11-05T20:36:09.779Z,9.97
2022-11-05T20:38:36.284Z,9.98
2022-11-05T20:41:07.942Z,9.91
2022-11-05T20:43:34.671Z,9.97
2022-11-05T20:46:01.284Z,9.95
2022-11-05T20:48:33.610Z,9.98
2022-11-05T20:51:04.155Z,10.03
2022-11-05T20:53:31.211Z,9.99
2022-11-05T20:55:57.715Z,10.02
2022-11-05T20:58:24.656Z,10.02
2022-11-05T21:00:55.626Z,10.03
2022-11-05T21:03:22.508Z,10.10
2022-11-05T21:05:52.162Z,10.10
2022-11-05T21:08:20.107Z,10.05
2022-11-05T21:10:51.085Z,10.09
2022-11-05T21:13:18.393Z,10.02
2022-11-05T21:15:50.238Z,10.03
2022-11-05T21:18:18.311Z,10.05
2022-11-05T21:20:46.298Z,10.03
2022-11-05T21:23:13.530Z,10.03
2022-11-05T21:25:40.876Z,10.09
2022-11-05T21:28:08.386Z,10.13
2022-11-05T21:30:37.153Z,10.12
2022-11-05T21:33:06.566Z,10.10
2022-11-05T21:35:33.509Z,10.16
2022-11-05T21:38:00.364Z,10.12
2022-11-05T21:40:26.919Z,10.08
2022-11-05T21:42:53.404Z,10.10
2022-11-05T21:45:19.923Z,10.15
2022-11-05T21:47:46.630Z,10.15
2022-11-05T21:50:15.199Z,10.03
2022-11-05T21:53:01.936Z,9.92
2022-11-05T21:55:46.954Z,9.99
2022-11-05T21:58:36.222Z,9.98
2022-11-05T22:01:03.319Z,9.94
2022-11-05T22:03:29.949Z,9.95
2022-11-05T22:05:57.228Z,9.88
2022-11-05T22:08:23.779Z,9.81
2022-11-05T22:10:50.252Z,9.77
2022-11-05T22:13:16.851Z,9.78
2022-11-05T22:15:43.365Z,9.85
2022-11-05T22:18:10.113Z,9.82
2022-11-05T22:20:39.848Z,9.75
2022-11-05T22:23:10.842Z,9.79
2022-11-05T22:25:37.949Z,9.84
2022-11-05T22:28:04.788Z,9.82
2022-11-05T22:30:35.482Z,9.84
2022-11-05T22:33:02.560Z,9.79
2022-11-05T22:35:29.094Z,9.79
2022-11-05T22:37:55.653Z,9.79
2022-11-05T22:40:23.956Z,9.78
2022-11-05T22:42:50.860Z,9.75
2022-11-05T22:45:17.435Z,9.79
2022-11-05T22:47:43.929Z,9.81
2022-11-05T22:50:10.486Z,9.85
2022-11-05T22:52:36.989Z,9.79
2022-11-05T22:55:06.198Z,9.77
2022-11-05T22:57:33.158Z,9.68
2022-11-05T22:59:59.635Z,9.74
2022-11-05T23:02:26.484Z,9.70
2022-11-05T23:04:53.147Z,9.75
2022-11-05T23:07:37.959Z,9.71
2022-11-05T23:10:23.987Z,9.65
2022-11-05T23:12:50.544Z,9.67
2022-11-05T23:15:35.736Z,9.51
2022-11-05T23:18:20.582Z,9.57
2022-11-05T23:21:05.956Z,9.51
2022-11-05T23:23:51.208Z,9.51
2022-11-05T23:26:36.525Z,9.50
2022-11-05T23:29:03.062Z,9.52
2022-11-05T23:31:48.273Z,9.52
2022-11-05T23:34:14.818Z,9.47
2022-11-05T23:36:59.857Z,9.60
2022-11-05T23:39:26.355Z,9.48
2022-11-05T23:42:11.387Z,9.43
2022-11-05T23:44:56.263Z,9.54
2022-11-05T23:47:41.122Z,9.52
2022-11-05T23:50:07.939Z,9.57
2022-11-05T23:52:34.482Z,9.55
2022-11-05T23:55:00.995Z,9.57
2022-11-05T23:57:27.507Z,9.62
2022-11-05T23:59:53.951Z,9.71
